createdAt,value
2023-02-04T00:00:58.712Z,5.31
2023-02-04T00:03:47.892Z,5.32
2023-02-04T00:06:35.549Z,5.30
2023-02-04T00:09:22.837Z,5.31
2023-02-04T00:12:11.132Z,5.30
2023-02-04T00:14:59.092Z,5.31
2023-02-04T00:17:47.399Z,5.33
2023-02-04T00:20:36.747Z,5.33
2023-02-04T00:23:24.860Z,5.34
2023-02-04T00:26:14.940Z,5.33
2023-02-04T00:29:02.789Z,5.32
2023-02-04T00:31:50.165Z,5.34
2023-02-04T00:34:37.851Z,5.35
2023-02-04T00:37:28.226Z,5.35
2023-02-04T00:40:16.350Z,5.36
2023-02-04T00:43:04.217Z,5.37
2023-02-04T00:45:51.705Z,5.36
2023-02-04T00:48:39.337Z,5.35
2023-02-04T00:51:26.898Z,5.36
2023-02-04T00:54:16.721Z,5.35
2023-02-04T00:57:04.643Z,5.36
2023-02-04T00:59:52.425Z,5.33
2023-02-04T01:02:40.779Z,5.34
2023-02-04T01:05:28.992Z,5.34
2023-02-04T01:08:16.338Z,5.34
2023-02-04T01:11:05.347Z,5.34
2023-02-04T01:13:54.386Z,5.31
2023-02-04T01:16:41.821Z,5.31
2023-02-04T01:19:29.237Z,5.31
2023-02-04T01:22:16.667Z,5.30
2023-02-04T01:25:04.493Z,5.30
2023-02-04T01:27:53.438Z,5.27
2023-02-04T01:30:40.956Z,5.29
2023-02-04T01:33:28.255Z,5.29
2023-02-04T01:36:21.507Z,5.27
2023-02-04T01:39:11.401Z,5.28
2023-02-04T01:42:01.033Z,5.26
2023-02-04T01:44:54.554Z,5.24
2023-02-04T01:47:42.608Z,5.20
2023-02-04T01:50:31.138Z,5.21
2023-02-04T01:53:24.245Z,5.21
2023-02-04T01:56:21.059Z,5.20
2023-02-04T01:59:14.535Z,5.18
2023-02-04T02:02:03.707Z,5.18
2023-02-04T02:04:51.446Z,5.20
2023-02-04T02:07:39.074Z,5.17
2023-02-04T02:10:28.229Z,5.16
2023-02-04T02:13:19.795Z,5.16
2023-02-04T02:16:07.824Z,5.16
2023-02-04T02:18:57.755Z,5.14
2023-02-04T02:21:54.469Z,5.12
2023-02-04T02:24:43.610Z,5.11
2023-02-04T02:27:31.776Z,5.08
2023-02-04T02:30:20.393Z,5.06
2023-02-04T02:33:09.113Z,5.04
2023-02-04T02:35:56.943Z,5.03
2023-02-04T02:38:44.686Z,5.02
2023-02-04T02:41:33.890Z,4.99
2023-02-04T02:44:21.571Z,4.97
2023-02-04T02:47:15.937Z,4.94
2023-02-04T02:50:03.506Z,4.91
2023-02-04T02:52:54.318Z,4.89
2023-02-04T02:55:42.879Z,4.86
2023-02-04T02:58:36.196Z,4.83
2023-02-04T03:01:23.916Z,4.79
2023-02-04T03:04:13.227Z,4.76
2023-02-04T03:07:12.175Z,4.72
2023-02-04T03:10:00.249Z,4.68
2023-02-04T03:12:49.009Z,4.66
2023-02-04T03:15:41.328Z,4.62
2023-02-04T03:18:29.235Z,4.59
2023-02-04T03:21:16.754Z,4.58
2023-02-04T03:24:08.080Z,4.55
2023-02-04T03:26:56.239Z,4.52
2023-02-04T03:29:47.974Z,4.51
2023-02-04T03:32:37.378Z,4.48
2023-02-04T03:35:24.764Z,4.49
2023-02-04T03:38:12.171Z,4.48
2023-02-04T03:41:06.312Z,4.49
2023-02-04T03:43:57.031Z,4.47
2023-02-04T03:46:44.591Z,4.47
2023-02-04T03:49:35.397Z,4.45
2023-02-04T03:52:23.346Z,4.46
2023-02-04T03:55:11.776Z,4.43
2023-02-04T03:57:59.745Z,4.43
2023-02-04T04:00:47.490Z,4.40
2023-02-04T04:03:35.175Z,4.41
2023-02-04T04:06:23.951Z,4.42
2023-02-04T04:09:11.504Z,4.38
2023-02-04T04:11:59.074Z,4.36
2023-02-04T04:14:46.787Z,4.31
2023-02-04T04:17:34.395Z,4.28
2023-02-04T04:20:25.434Z,4.23
2023-02-04T04:23:14.336Z,4.17
2023-02-04T04:26:01.992Z,4.15
2023-02-04T04:28:49.816Z,4.10
2023-02-04T04:31:37.605Z,4.05
2023-02-04T04:34:25.579Z,4.05
2023-02-04T04:37:13.260Z,4.02
2023-02-04T04:40:03.059Z,4.01
2023-02-04T04:42:50.601Z,3.99
2023-02-04T04:45:38.103Z,3.99
2023-02-04T04:48:25.633Z,4.00
2023-02-04T04:51:12.966Z,4.01
2023-02-04T04:54:01.072Z,4.02
2023-02-04T04:56:50.266Z,4.02
2023-02-04T04:59:38.098Z,4.03
2023-02-04T05:02:25.693Z,4.04
2023-02-04T05:05:15.860Z,4.05
2023-02-04T05:08:03.543Z,4.07
2023-02-04T05:10:51.149Z,4.07
2023-02-04T05:13:40.040Z,4.08
2023-02-04T05:16:27.938Z,4.08
2023-02-04T05:19:15.512Z,4.09
2023-02-04T05:22:03.214Z,4.10
2023-02-04T05:24:50.516Z,4.11
2023-02-04T05:27:37.956Z,4.10
2023-02-04T05:30:26.940Z,4.10
2023-02-04T05:33:14.820Z,4.10
2023-02-04T05:36:02.390Z,4.11
2023-02-04T05:38:49.996Z,4.09
2023-02-04T05:41:37.681Z,4.08
2023-02-04T05:44:27.257Z,4.09
2023-02-04T05:47:16.631Z,4.05
2023-02-04T05:50:04.499Z,4.03
2023-02-04T05:52:52.223Z,4.02
2023-02-04T05:55:39.777Z,3.99
2023-02-04T05:58:33.188Z,3.98
2023-02-04T06:01:20.974Z,3.95
2023-02-04T06:04:09.859Z,3.93
2023-02-04T06:06:57.612Z,3.91
2023-02-04T06:09:45.112Z,3.90
2023-02-04T06:12:32.684Z,3.88
2023-02-04T06:15:20.543Z,3.84
2023-02-04T06:18:08.480Z,3.80
2023-02-04T06:20:57.702Z,3.76
2023-02-04T06:23:45.317Z,3.72
2023-02-04T06:26:32.815Z,3.70
2023-02-04T06:29:20.416Z,3.72
2023-02-04T06:32:08.086Z,3.66
2023-02-04T06:34:55.544Z,3.45
2023-02-04T06:37:45.664Z,3.35
2023-02-04T06:40:33.585Z,3.22
2023-02-04T06:43:21.691Z,3.20
2023-02-04T06:46:09.228Z,3.20
2023-02-04T06:48:57.314Z,3.21
2023-02-04T06:51:44.777Z,3.26
2023-02-04T06:54:33.656Z,3.23
2023-02-04T06:57:21.460Z,3.18
2023-02-04T07:00:12.929Z,3.17
2023-02-04T07:03:00.781Z,3.18
2023-02-04T07:05:48.372Z,3.13
2023-02-04T07:08:35.892Z,3.11
2023-02-04T07:11:24.662Z,3.13
2023-02-04T07:14:12.264Z,3.12
2023-02-04T07:16:59.857Z,3.08
2023-02-04T07:19:47.375Z,3.06
2023-02-04T07:22:35.054Z,3.04
2023-02-04T07:25:22.422Z,3.00
2023-02-04T07:28:11.279Z,3.01
2023-02-04T07:30:59.052Z,3.00
2023-02-04T07:33:46.768Z,2.98
2023-02-04T07:36:34.301Z,2.94
2023-02-04T07:39:21.578Z,2.93
2023-02-04T07:42:09.091Z,2.92
2023-02-04T07:44:58.072Z,2.90
2023-02-04T07:47:45.594Z,2.89
2023-02-04T07:50:33.173Z,2.87
2023-02-04T07:53:20.888Z,2.84
2023-02-04T07:56:08.707Z,2.85
2023-02-04T07:58:56.509Z,2.85
2023-02-04T08:01:45.432Z,2.83
2023-02-04T08:04:33.134Z,2.83
2023-02-04T08:07:20.775Z,2.85
2023-02-04T08:10:11.360Z,2.91
2023-02-04T08:12:59.121Z,2.97
2023-02-04T08:15:46.672Z,3.02
2023-02-04T08:18:35.893Z,3.06
2023-02-04T08:21:23.717Z,3.12
2023-02-04T08:24:11.256Z,3.15
2023-02-04T08:26:59.374Z,3.21
2023-02-04T08:29:46.687Z,3.28
2023-02-04T08:32:34.354Z,3.33
2023-02-04T08:35:23.345Z,3.41
2023-02-04T08:38:11.001Z,3.44
2023-02-04T08:40:59.924Z,3.51
2023-02-04T08:43:47.724Z,3.58
2023-02-04T08:46:38.025Z,3.64
2023-02-04T08:49:25.675Z,3.69
2023-02-04T08:52:14.528Z,3.74
2023-02-04T08:55:02.160Z,3.76
2023-02-04T08:57:49.838Z,3.81
2023-02-04T09:00:37.072Z,3.84
2023-02-04T09:03:24.625Z,3.92
2023-02-04T09:06:13.395Z,3.94
2023-02-04T09:09:02.683Z,4.02
2023-02-04T09:11:50.096Z,4.06
2023-02-04T09:14:37.728Z,4.10
2023-02-04T09:17:25.232Z,4.14
2023-02-04T09:20:13.672Z,4.20
2023-02-04T09:23:02.355Z,4.16
2023-02-04T09:25:51.910Z,4.28
2023-02-04T09:28:40.162Z,4.31
2023-02-04T09:31:27.652Z,4.31
2023-02-04T09:34:15.182Z,4.33
2023-02-04T09:37:02.574Z,4.44
2023-02-04T09:39:50.266Z,4.47
2023-02-04T09:42:39.625Z,4.58
2023-02-04T09:45:30.856Z,4.65
2023-02-04T09:48:19.536Z,4.63
2023-02-04T09:51:09.474Z,4.70
2023-02-04T09:54:09.980Z,4.77
2023-02-04T09:56:59.378Z,4.85
2023-02-04T09:59:48.642Z,4.82
2023-02-04T10:02:36.927Z,4.86
2023-02-04T10:05:30.886Z,4.92
2023-02-04T10:08:21.562Z,4.95
2023-02-04T10:11:10.198Z,4.91
2023-02-04T10:13:57.988Z,5.00
2023-02-04T10:16:59.142Z,5.08
2023-02-04T10:19:47.646Z,5.14
2023-02-04T10:22:42.623Z,5.07
2023-02-04T10:25:30.318Z,5.12
2023-02-04T10:28:18.367Z,5.22
2023-02-04T10:31:08.408Z,5.24
2023-02-04T10:34:07.908Z,5.28
2023-02-04T10:36:57.946Z,5.24
2023-02-04T10:39:45.971Z,5.25
2023-02-04T10:42:34.078Z,5.28
2023-02-04T10:45:27.194Z,5.28
2023-02-04T10:48:19.968Z,5.35
2023-02-04T10:51:13.882Z,5.48
2023-02-04T10:54:18.862Z,5.54
2023-02-04T10:57:19.465Z,5.61
2023-02-04T11:00:18.986Z,5.67
2023-02-04T11:03:12.921Z,5.78
2023-02-04T11:06:01.983Z,5.82
2023-02-04T11:08:54.605Z,5.86
2023-02-04T11:11:48.218Z,5.89
2023-02-04T11:14:35.631Z,5.80
2023-02-04T11:17:29.780Z,5.88
2023-02-04T11:20:33.979Z,6.00
2023-02-04T11:23:37.299Z,6.08
2023-02-04T11:26:37.715Z,6.11
2023-02-04T11:29:34.894Z,6.24
2023-02-04T11:32:34.818Z,6.35
2023-02-04T11:35:27.444Z,6.48
2023-02-04T11:38:29.313Z,6.54
2023-02-04T11:41:25.822Z,6.70
2023-02-04T11:44:16.849Z,6.82
2023-02-04T11:47:10.169Z,6.90
2023-02-04T11:50:04.197Z,6.85
2023-02-04T11:52:51.881Z,6.92
2023-02-04T11:55:49.280Z,6.98
2023-02-04T11:58:42.072Z,7.11
2023-02-04T12:01:35.326Z,7.19
2023-02-04T12:04:26.224Z,7.23
2023-02-04T12:07:22.702Z,7.31
2023-02-04T12:10:23.357Z,7.28
2023-02-04T12:13:19.078Z,7.09
2023-02-04T12:16:08.526Z,7.09
2023-02-04T12:18:57.403Z,7.24
2023-02-04T12:21:47.930Z,7.33
2023-02-04T12:24:35.660Z,7.40
2023-02-04T12:27:23.105Z,7.18
2023-02-04T12:30:13.496Z,7.38
2023-02-04T12:33:01.576Z,7.40
2023-02-04T12:35:52.082Z,7.42
2023-02-04T12:38:39.562Z,7.46
2023-02-04T12:41:27.171Z,7.47
2023-02-04T12:44:15.257Z,7.43
2023-02-04T12:47:02.933Z,7.32
2023-02-04T12:49:51.278Z,7.34
2023-02-04T12:52:40.432Z,7.31
2023-02-04T12:55:30.577Z,7.36
2023-02-04T12:58:18.958Z,7.33
2023-02-04T13:01:07.392Z,7.37
2023-02-04T13:03:55.415Z,7.41
2023-02-04T13:06:43.575Z,7.42
2023-02-04T13:09:33.972Z,7.41
2023-02-04T13:12:21.557Z,7.42
2023-02-04T13:15:10.825Z,7.44
2023-02-04T13:17:59.544Z,7.42
2023-02-04T13:20:48.157Z,7.40
2023-02-04T13:23:36.456Z,7.35
2023-02-04T13:26:26.301Z,7.38
2023-02-04T13:29:14.932Z,7.36
2023-02-04T13:32:02.740Z,7.30
2023-02-04T13:34:50.391Z,7.31
2023-02-04T13:37:38.598Z,7.26
2023-02-04T13:40:26.277Z,7.18
2023-02-04T13:43:15.041Z,7.19
2023-02-04T13:46:04.281Z,7.21
2023-02-04T13:48:51.789Z,7.20
2023-02-04T13:51:39.239Z,7.17
2023-02-04T13:54:26.933Z,7.13
2023-02-04T13:57:17.028Z,7.12
2023-02-04T14:00:09.710Z,7.11
2023-02-04T14:02:57.581Z,7.09
2023-02-04T14:05:45.217Z,7.06
2023-02-04T14:08:34.066Z,6.98
2023-02-04T14:11:22.605Z,6.91
2023-02-04T14:14:10.348Z,6.92
2023-02-04T14:17:00.531Z,6.92
2023-02-04T14:19:49.783Z,6.93
2023-02-04T14:22:39.452Z,6.94
2023-02-04T14:25:30.548Z,6.91
2023-02-04T14:28:19.315Z,6.85
2023-02-04T14:31:08.116Z,6.80
2023-02-04T14:33:58.625Z,6.77
2023-02-04T14:36:47.323Z,6.71
2023-02-04T14:39:36.023Z,6.74
2023-02-04T14:42:24.526Z,6.79
2023-02-04T14:45:14.968Z,6.75
2023-02-04T14:48:03.416Z,6.86
2023-02-04T14:50:53.062Z,6.88
2023-02-04T14:53:46.134Z,6.89
2023-02-04T14:56:39.171Z,6.90
2023-02-04T14:59:27.227Z,6.89
2023-02-04T15:02:16.145Z,6.89
2023-02-04T15:05:07.570Z,6.86
2023-02-04T15:07:57.243Z,6.83
2023-02-04T15:10:45.426Z,6.80
2023-02-04T15:13:33.486Z,6.78
2023-02-04T15:16:21.870Z,6.74
2023-02-04T15:19:09.593Z,6.69
2023-02-04T15:21:58.059Z,6.64
2023-02-04T15:24:49.995Z,6.57
2023-02-04T15:27:38.191Z,6.49
2023-02-04T15:30:25.597Z,6.43
2023-02-04T15:33:13.993Z,6.40
2023-02-04T15:36:02.084Z,6.30
2023-02-04T15:38:49.944Z,6.22
2023-02-04T15:41:39.131Z,6.19
2023-02-04T15:44:27.098Z,6.14
2023-02-04T15:47:14.802Z,6.11
2023-02-04T15:50:04.054Z,6.05
2023-02-04T15:52:51.708Z,5.99
2023-02-04T15:55:39.166Z,5.91
2023-02-04T15:58:28.131Z,5.81
2023-02-04T16:01:15.893Z,5.73
2023-02-04T16:04:03.459Z,5.63
2023-02-04T16:06:58.341Z,5.53
2023-02-04T16:09:46.610Z,5.43
2023-02-04T16:12:34.566Z,5.31
2023-02-04T16:15:23.876Z,5.20
2023-02-04T16:18:11.270Z,5.09
2023-02-04T16:20:59.741Z,4.99
2023-02-04T16:23:48.388Z,4.88
2023-02-04T16:26:35.875Z,4.80
2023-02-04T16:29:23.602Z,4.73
2023-02-04T16:32:12.610Z,4.61
2023-02-04T16:35:04.472Z,4.55
2023-02-04T16:37:51.886Z,4.45
2023-02-04T16:40:39.624Z,4.35
2023-02-04T16:43:27.499Z,4.25
2023-02-04T16:46:16.113Z,4.13
2023-02-04T16:49:06.042Z,4.03
2023-02-04T16:51:53.968Z,3.93
2023-02-04T16:54:47.295Z,3.83
2023-02-04T16:57:35.098Z,3.71
2023-02-04T17:00:23.725Z,3.60
2023-02-04T17:03:12.422Z,3.50
2023-02-04T17:06:01.306Z,3.43
2023-02-04T17:08:49.012Z,3.35
2023-02-04T17:11:37.454Z,3.24
2023-02-04T17:14:25.436Z,3.15
2023-02-04T17:17:13.104Z,3.07
2023-02-04T17:20:01.100Z,2.97
2023-02-04T17:22:50.574Z,2.87
2023-02-04T17:25:38.155Z,2.78
2023-02-04T17:28:26.181Z,2.69
2023-02-04T17:31:13.775Z,2.62
2023-02-04T17:34:03.077Z,2.51
2023-02-04T17:36:50.833Z,2.42
2023-02-04T17:39:39.963Z,2.34
2023-02-04T17:42:28.491Z,2.24
2023-02-04T17:45:16.477Z,2.17
2023-02-04T17:48:05.102Z,2.07
2023-02-04T17:50:53.281Z,1.99
2023-02-04T17:53:41.372Z,1.90
2023-02-04T17:56:30.468Z,1.81
2023-02-04T17:59:17.837Z,1.73
2023-02-04T18:02:24.371Z,1.65
2023-02-04T18:05:17.001Z,1.56
2023-02-04T18:08:16.170Z,1.47
2023-02-04T18:11:04.113Z,1.38
2023-02-04T18:13:53.248Z,1.32
2023-02-04T18:16:41.669Z,1.24
2023-02-04T18:19:36.970Z,1.17
2023-02-04T18:22:28.366Z,1.10
2023-02-04T18:25:21.780Z,1.02
2023-02-04T18:28:16.711Z,0.95
2023-02-04T18:31:29.920Z,0.87
2023-02-04T18:34:23.730Z,0.79
2023-02-04T18:37:29.835Z,0.72
2023-02-04T18:40:26.428Z,0.64
2023-02-04T18:43:30.600Z,0.55
2023-02-04T18:46:26.784Z,0.48
2023-02-04T18:49:26.803Z,0.41
2023-02-04T18:52:19.921Z,0.31
2023-02-04T18:55:24.814Z,0.26
2023-02-04T18:58:31.127Z,0.20
2023-02-04T19:01:27.509Z,0.13
2023-02-04T19:04:23.721Z,0.10
2023-02-04T19:07:17.198Z,0.05
2023-02-04T19:10:28.314Z,-0.03
2023-02-04T19:13:22.111Z,-0.10
2023-02-04T19:16:25.807Z,-0.17
2023-02-04T19:19:38.451Z,-0.23
2023-02-04T19:22:46.053Z,-0.29
2023-02-04T19:25:36.169Z,-0.34
2023-02-04T19:28:31.006Z,-0.40
2023-02-04T19:31:19.501Z,-0.46
2023-02-04T19:34:25.216Z,-0.54
2023-02-04T19:37:24.528Z,-0.58
2023-02-04T19:40:39.256Z,-0.63
2023-02-04T19:43:36.921Z,-0.67
2023-02-04T19:46:28.018Z,-0.71
2023-02-04T19:49:24.168Z,-0.77
2023-02-04T19:52:41.430Z,-0.83
2023-02-04T19:55:58.640Z,-0.90
2023-02-04T19:58:49.099Z,-0.96
2023-02-04T20:01:46.282Z,-1.02
2023-02-04T20:04:47.272Z,-1.08
2023-02-04T20:07:40.779Z,-1.12
2023-02-04T20:10:38.683Z,-1.18
2023-02-04T20:13:32.666Z,-1.22
2023-02-04T20:17:04.162Z,-1.22
2023-02-04T20:20:08.204Z,-1.28
2023-02-04T20:23:04.931Z,-1.35
2023-02-04T20:26:02.193Z,-1.42
2023-02-04T20:36:48.843Z,-1.58
2023-02-04T20:39:52.399Z,-1.65
2023-02-04T20:43:06.295Z,-1.71
2023-02-04T20:46:57.395Z,-1.78
2023-02-04T20:49:55.857Z,-1.87
2023-02-04T20:53:37.297Z,-1.83
2023-02-04T20:57:07.989Z,-1.83
2023-02-04T21:00:07.268Z,-1.91
2023-02-04T21:07:19.334Z,-2.07
2023-02-04T21:13:57.247Z,-2.15
2023-02-04T21:17:27.697Z,-2.20
2023-02-04T21:20:19.757Z,-2.25
2023-02-04T21:23:15.456Z,-2.29
2023-02-04T21:26:37.042Z,-2.32
2023-02-04T21:32:41.034Z,-2.38
2023-02-04T21:35:30.769Z,-2.43
2023-02-04T21:38:23.678Z,-2.47
2023-02-04T21:41:18.979Z,-2.52
2023-02-04T21:44:16.124Z,-2.50
2023-02-04T21:47:08.330Z,-2.54
2023-02-04T21:50:01.825Z,-2.59
2023-02-04T21:53:11.468Z,-2.65
2023-02-04T21:56:12.158Z,-2.71
2023-02-04T21:59:01.352Z,-2.75
2023-02-04T22:01:51.029Z,-2.77
2023-02-04T22:04:48.019Z,-2.80
2023-02-04T22:07:36.706Z,-2.84
2023-02-04T22:10:32.297Z,-2.88
2023-02-04T22:13:45.762Z,-2.92
2023-02-04T22:16:57.955Z,-2.98
2023-02-04T22:19:49.824Z,-3.01
2023-02-04T22:22:39.117Z,-2.99
2023-02-04T22:25:33.859Z,-3.00
2023-02-04T22:28:51.820Z,-3.03
2023-02-04T22:32:14.343Z,-3.10
2023-02-04T22:35:17.427Z,-3.17
2023-02-04T22:38:15.908Z,-3.20
2023-02-04T22:41:21.628Z,-3.20
2023-02-04T22:47:14.784Z,-3.31
2023-02-04T22:50:06.217Z,-3.35
2023-02-04T22:52:53.894Z,-3.37
2023-02-04T22:55:45.660Z,-3.41
2023-02-04T22:59:02.168Z,-3.41
2023-02-04T23:01:54.211Z,-3.45
2023-02-04T23:04:57.083Z,-3.51
2023-02-04T23:07:45.003Z,-3.56
2023-02-04T23:10:33.085Z,-3.58
2023-02-04T23:13:20.943Z,-3.62
2023-02-04T23:16:14.597Z,-3.65
2023-02-04T23:19:16.127Z,-3.67
2023-02-04T23:22:11.399Z,-3.71
2023-02-04T23:25:04.208Z,-3.74
2023-02-04T23:28:07.090Z,-3.78
2023-02-04T23:30:57.227Z,-3.82
2023-02-04T23:33:45.218Z,-3.84
2023-02-04T23:36:36.387Z,-3.87
2023-02-04T23:39:25.670Z,-3.89
2023-02-04T23:42:13.875Z,-3.93
2023-02-04T23:45:01.566Z,-3.95
2023-02-04T23:47:49.271Z,-3.97
2023-02-04T23:50:36.735Z,-3.99
2023-02-04T23:53:24.554Z,-4.01
2023-02-04T23:56:13.630Z,-4.05
2023-02-04T23:59:01.160Z,-4.09
